createdAt,value
2022-09-26T00:01:44.200Z,46.78
2022-09-26T00:06:46.859Z,45.95
2022-09-26T00:11:49.577Z,45.28
2022-09-26T00:16:51.988Z,44.97
2022-09-26T00:21:54.479Z,41.97
2022-09-26T00:26:56.830Z,38.65
2022-09-26T00:31:59.272Z,40.28
2022-09-26T00:37:01.909Z,40.67
2022-09-26T00:42:04.485Z,47.70
2022-09-26T00:47:08.550Z,44.63
2022-09-26T00:52:13.070Z,41.83
2022-09-26T00:57:41.098Z,53.78
2022-09-26T01:07:46.816Z,43.47
2022-09-26T01:12:49.146Z,42.35
2022-09-26T01:17:51.754Z,48.78
2022-09-26T01:23:31.914Z,45.33
2022-09-26T01:29:04.741Z,61.22
2022-09-26T01:34:21.061Z,51.80
2022-09-26T01:39:43.806Z,52.75
2022-09-26T01:44:52.505Z,52.00
2022-09-26T01:50:04.126Z,41.70
2022-09-26T01:55:17.617Z,44.17
2022-09-26T02:00:20.667Z,39.88
2022-09-26T02:05:33.442Z,41.08
2022-09-26T02:10:39.276Z,39.38
2022-09-26T02:15:48.345Z,40.08
2022-09-26T02:20:57.011Z,36.33
2022-09-26T02:26:00.169Z,32.47
2022-09-26T02:31:04.479Z,33.03
2022-09-26T02:36:08.490Z,37.58
2022-09-26T02:41:30.284Z,34.38
2022-09-26T02:46:53.751Z,34.40
2022-09-26T02:52:14.418Z,36.72
2022-09-26T02:57:55.638Z,39.78
2022-09-26T03:03:19.982Z,40.30
2022-09-26T03:08:26.539Z,44.42
2022-09-26T03:13:34.759Z,52.85
2022-09-26T03:18:43.030Z,37.88
2022-09-26T03:23:45.993Z,45.50
2022-09-26T03:28:49.065Z,35.40
2022-09-26T03:33:52.939Z,37.45
2022-09-26T03:38:55.335Z,30.60
2022-09-26T03:44:12.103Z,39.33
2022-09-26T03:49:35.327Z,31.58
2022-09-26T03:54:37.943Z,38.72
2022-09-26T03:59:40.498Z,35.72
2022-09-26T04:04:43.085Z,38.20
2022-09-26T04:09:46.152Z,38.22
2022-09-26T04:14:48.521Z,40.00
2022-09-26T04:19:51.718Z,44.38
2022-09-26T04:24:54.711Z,44.03
2022-09-26T04:29:57.852Z,43.30
2022-09-26T04:35:11.419Z,36.38
2022-09-26T04:40:13.958Z,61.20
2022-09-26T04:45:26.710Z,44.55
2022-09-26T04:50:29.226Z,47.30
2022-09-26T04:55:49.570Z,54.55
2022-09-26T05:00:52.608Z,44.28
2022-09-26T05:06:10.117Z,45.17
2022-09-26T05:11:13.146Z,47.83
2022-09-26T05:16:16.197Z,41.22
2022-09-26T05:21:20.000Z,39.22
2022-09-26T05:26:33.278Z,40.92
2022-09-26T05:31:38.098Z,47.33
2022-09-26T05:36:42.833Z,45.55
2022-09-26T05:41:45.185Z,45.25
2022-09-26T05:46:47.751Z,42.17
2022-09-26T05:51:50.323Z,41.17
2022-09-26T05:56:53.847Z,50.35
2022-09-26T06:02:18.606Z,39.97
2022-09-26T06:07:37.643Z,30.67
2022-09-26T06:12:48.815Z,27.13
2022-09-26T06:18:04.588Z,27.52
2022-09-26T06:23:07.339Z,28.33
2022-09-26T06:28:13.582Z,27.42
2022-09-26T06:33:16.118Z,30.50
2022-09-26T06:38:47.648Z,25.27
2022-09-26T06:43:53.219Z,34.05
2022-09-26T06:49:22.131Z,26.35
2022-09-26T06:54:45.883Z,33.42
2022-09-26T06:59:49.071Z,25.85
2022-09-26T07:05:06.090Z,26.15
2022-09-26T07:10:12.822Z,33.53
2022-09-26T07:15:21.025Z,27.63
2022-09-26T07:20:24.127Z,25.50
2022-09-26T07:25:49.148Z,30.80
2022-09-26T07:30:51.740Z,27.85
2022-09-26T07:36:10.871Z,30.42
2022-09-26T07:41:14.097Z,40.75
2022-09-26T07:46:35.375Z,28.23
2022-09-26T07:51:39.215Z,26.20
2022-09-26T07:56:46.439Z,27.45
2022-09-26T08:02:24.136Z,27.15
2022-09-26T08:12:39.971Z,31.30
2022-09-26T08:18:08.635Z,30.38
2022-09-26T08:23:11.659Z,30.02
2022-09-26T08:28:14.688Z,29.17
2022-09-26T08:33:19.129Z,29.40
2022-09-26T08:38:23.204Z,28.55
2022-09-26T08:44:11.248Z,31.58
2022-09-26T08:49:31.499Z,28.98
2022-09-26T08:54:43.888Z,28.75
2022-09-26T08:59:47.988Z,27.00
2022-09-26T09:10:04.957Z,27.83
2022-09-26T09:15:29.036Z,25.73
2022-09-26T09:21:39.372Z,25.75
2022-09-26T09:27:54.031Z,20.90
2022-09-26T09:33:02.029Z,19.05
2022-09-26T09:43:47.591Z,18.13
2022-09-26T09:48:55.910Z,18.65
2022-09-26T09:54:04.071Z,20.63
2022-09-26T09:59:51.794Z,16.38
2022-09-26T10:10:22.986Z,18.15
2022-09-26T10:16:06.571Z,18.83
2022-09-26T10:21:34.755Z,21.27
2022-09-26T10:26:39.388Z,18.25
2022-09-26T10:31:43.598Z,18.08
2022-09-26T10:36:53.943Z,16.38
2022-09-26T10:41:58.612Z,20.50
2022-09-26T10:47:09.003Z,25.23
2022-09-26T10:52:20.112Z,17.17
2022-09-26T10:57:28.335Z,20.58
2022-09-26T11:02:32.520Z,19.92
2022-09-26T11:07:39.362Z,18.85
2022-09-26T11:13:17.150Z,17.65
2022-09-26T11:18:27.308Z,19.67
2022-09-26T11:23:35.720Z,19.63
2022-09-26T11:28:40.932Z,19.50
2022-09-26T11:34:04.855Z,17.83
2022-09-26T11:39:41.037Z,18.40
2022-09-26T11:44:59.022Z,14.50
2022-09-26T11:50:39.812Z,12.38
2022-09-26T11:55:56.215Z,16.70
2022-09-26T12:01:19.969Z,14.25
2022-09-26T12:06:35.175Z,13.98
2022-09-26T12:11:45.943Z,13.98
2022-09-26T12:17:19.717Z,16.05
2022-09-26T12:22:43.194Z,15.07
2022-09-26T12:28:09.791Z,15.30
2022-09-26T12:33:24.301Z,14.45
2022-09-26T12:38:56.661Z,22.02
2022-09-26T12:44:09.022Z,23.13
2022-09-26T12:49:21.470Z,22.63
2022-09-26T12:54:39.113Z,21.58
2022-09-26T12:59:41.417Z,17.92
2022-09-26T13:04:51.691Z,17.20
2022-09-26T13:10:12.051Z,20.05
2022-09-26T13:15:30.521Z,17.73
2022-09-26T13:20:50.063Z,19.67
2022-09-26T13:26:04.699Z,18.67
2022-09-26T13:31:19.556Z,23.70
2022-09-26T13:36:23.017Z,21.65
2022-09-26T13:41:43.543Z,20.90
2022-09-26T13:47:27.152Z,19.98
2022-09-26T13:53:06.909Z,19.10
2022-09-26T13:58:26.614Z,23.27
2022-09-26T14:03:29.210Z,22.88
2022-09-26T14:08:55.257Z,17.05
2022-09-26T14:14:19.231Z,16.98
2022-09-26T14:19:39.407Z,16.48
2022-09-26T14:24:45.427Z,15.98
2022-09-26T14:29:53.060Z,17.30
2022-09-26T14:40:00.538Z,15.82
2022-09-26T14:45:09.031Z,20.85
2022-09-26T14:50:20.621Z,21.75
2022-09-26T14:55:23.090Z,20.90
2022-09-26T15:00:41.990Z,19.77
2022-09-26T15:05:45.175Z,20.67
2022-09-26T15:10:48.464Z,19.20
2022-09-26T15:15:50.824Z,19.83
2022-09-26T15:21:04.167Z,19.60
2022-09-26T15:26:07.109Z,19.65
2022-09-26T15:31:39.371Z,30.55
2022-09-26T15:36:42.621Z,16.65
2022-09-26T15:42:04.337Z,28.35
2022-09-26T15:47:30.122Z,33.53
2022-09-26T15:52:35.727Z,27.30
2022-09-26T15:57:38.236Z,21.73
2022-09-26T16:02:40.746Z,18.92
2022-09-26T16:07:48.392Z,22.38
2022-09-26T16:17:54.767Z,18.05
2022-09-26T16:23:04.081Z,20.33
2022-09-26T16:28:10.491Z,27.98
2022-09-26T16:33:28.218Z,25.25
2022-09-26T16:43:38.558Z,22.00
2022-09-26T16:48:51.405Z,24.30
2022-09-26T16:54:08.973Z,43.70
2022-09-26T16:59:26.822Z,33.00
2022-09-26T17:04:31.289Z,31.15
2022-09-26T17:09:35.216Z,29.52
2022-09-26T17:14:40.630Z,31.00
2022-09-26T17:19:44.852Z,30.40
2022-09-26T17:24:51.317Z,37.25
2022-09-26T17:29:55.843Z,43.17
2022-09-26T17:35:00.017Z,92.50
2022-09-26T17:40:04.062Z,86.65
2022-09-26T17:45:07.081Z,69.18
2022-09-26T17:50:16.917Z,83.43
2022-09-26T17:55:21.691Z,35.95
2022-09-26T18:00:24.135Z,63.00
2022-09-26T18:05:31.227Z,52.20
2022-09-26T18:10:35.011Z,46.30
2022-09-26T18:15:37.635Z,51.47
2022-09-26T18:20:40.563Z,45.50
2022-09-26T18:25:47.199Z,40.05
2022-09-26T18:30:57.859Z,40.35
2022-09-26T18:36:00.855Z,35.75
2022-09-26T18:41:07.048Z,53.90
2022-09-26T18:46:17.828Z,40.40
2022-09-26T18:51:20.642Z,43.28
2022-09-26T18:56:41.847Z,46.80
2022-09-26T19:01:44.437Z,40.35
2022-09-26T19:06:49.858Z,37.22
2022-09-26T19:11:52.274Z,41.53
2022-09-26T19:16:55.824Z,47.05
2022-09-26T19:22:01.006Z,53.28
2022-09-26T19:27:11.356Z,49.33
2022-09-26T19:32:20.127Z,61.05
2022-09-26T19:37:22.542Z,57.92
2022-09-26T19:42:26.393Z,54.08
2022-09-26T19:47:29.710Z,52.38
2022-09-26T19:52:32.173Z,62.45
2022-09-26T19:57:34.740Z,71.35
2022-09-26T20:02:37.212Z,52.28
2022-09-26T20:07:39.603Z,72.22
2022-09-26T20:12:43.174Z,65.18
2022-09-26T20:17:46.442Z,53.50
2022-09-26T20:22:51.120Z,53.25
2022-09-26T20:27:53.660Z,60.08
2022-09-26T20:32:55.965Z,66.97
2022-09-26T20:38:05.149Z,92.95
2022-09-26T20:43:11.861Z,61.78
2022-09-26T20:48:23.523Z,54.60
2022-09-26T20:53:26.370Z,43.75
2022-09-26T20:58:28.753Z,59.33
2022-09-26T21:03:31.755Z,54.03
2022-09-26T21:08:34.082Z,45.28
2022-09-26T21:13:36.432Z,45.50
2022-09-26T21:18:39.031Z,56.95
2022-09-26T21:23:43.116Z,47.08
2022-09-26T21:28:45.615Z,55.95
2022-09-26T21:33:48.182Z,58.17
2022-09-26T21:38:51.896Z,72.35
2022-09-26T21:44:06.173Z,96.10
2022-09-26T21:49:08.619Z,73.90
2022-09-26T21:54:21.805Z,78.28
2022-09-26T21:59:24.874Z,76.20
2022-09-26T22:04:27.406Z,73.82
2022-09-26T22:09:30.476Z,83.85
2022-09-26T22:14:33.160Z,47.30
2022-09-26T22:19:36.076Z,45.53
2022-09-26T22:24:38.511Z,45.30
2022-09-26T22:29:42.025Z,41.42
2022-09-26T22:34:44.383Z,41.22
2022-09-26T22:39:46.759Z,54.15
2022-09-26T22:44:49.153Z,60.25
2022-09-26T22:49:52.102Z,73.22
2022-09-26T22:54:54.633Z,49.47
2022-09-26T22:59:57.300Z,45.88
2022-09-26T23:04:59.697Z,41.63
2022-09-26T23:10:02.213Z,43.05
2022-09-26T23:15:05.441Z,47.45
2022-09-26T23:20:08.343Z,56.60
2022-09-26T23:25:10.882Z,46.15
2022-09-26T23:30:13.490Z,41.42
2022-09-26T23:35:16.117Z,42.97
2022-09-26T23:40:18.529Z,43.95
2022-09-26T23:45:20.888Z,40.35
2022-09-26T23:50:23.318Z,44.95
2022-09-26T23:55:25.705Z,41.47
